KBLF/BLF METAR and TAF weather

Enter ICAO airport designator
Station Type Date Time Source
KBLF METAR 2020/10/29 16:08 UTC NOAA

KBLF 291608Z AUTO 29003KT 5SM -RA BR BKN004 BKN028 OVC035 17/17 A2959 RMK AO2 P0001 T01720172


Station Type Date Time Source
KBLF Decoded METAR 2020/10/29 16:08 UTC NOAA

BLUEFIELD MERCER COUNTY AIRPORT , WV, United States (KBLF) 37-18N 081-12W 873M
Oct 29, 2020 - 12:08 PM EDT / 2020.10.29 1608 UTC
Wind: from the WNW (290 degrees) at 3 MPH (3 KT):0
Visibility: 5 mile(s):0
Sky conditions: overcast
Weather: light rain; mist
Precipitation last hour: 0.01 inches
Temperature: 63.0 F (17.2 C)
Dew Point: 63.0 F (17.2 C)
Relative Humidity: 100%
Pressure (altimeter): 29.59 in. Hg (1002 hPa)
ob: KBLF 291608Z AUTO 29003KT 5SM -RA BR BKN004 BKN028 OVC035 17/17 A2959 RMK AO2 P0001 T01720172
cycle: 16

Station Type Date Time Source
KBLF TAF 2020/10/29 14:40 UTC NOAA

TAF
AMD KBLF 291338Z 2914/3012 15010G18KT 2SM RA SCT005 SCT012 OVC035 WS020/16040KT
TEMPO 2914/2916 1 1/2SM +SHRA BR OVC005
FM291600 23019G38KT 3SM SHRA OVC005
FM291800 25017G28KT P6SM -SHRA SCT005 OVC013
FM300000 27008KT P6SM SCT025
FM300400 29008KT 6SM -SHRA BR OVC007

Example: see airport list